Time;durP1;ratioP1;P1;durP2;ratioP2;P2;SDS_P1;SDS_P2;PMS_P1;PMS_P2;Temp;Humidity;BMP_temperature;BMP_pressure;BME280_temperature;BME280_humidity;BME280_pressure;Samples;Min_cycle;Max_cycle;Signal;HPM_P1;HPM_P2
2022/08/19 00:00:24;;;;;;;8.32;6.50;;;14.20;99.90;;;;;;5043947;28;20451;-59
2022/08/19 00:02:49;;;;;;;9.23;6.45;;;14.20;99.90;;;;;;5037836;28;20080;-60
2022/08/19 00:05:15;;;;;;;9.20;6.35;;;14.20;99.90;;;;;;5037035;28;20052;-60
2022/08/19 00:07:42;;;;;;;10.30;6.75;;;14.20;99.90;;;;;;5040720;28;20037;-61
2022/08/19 00:10:10;;;;;;;9.05;6.78;;;14.10;99.90;;;;;;5037495;28;20033;-61
2022/08/19 00:12:37;;;;;;;9.27;6.05;;;14.10;99.90;;;;;;5039134;28;20033;-59
2022/08/19 00:15:06;;;;;;;10.10;7.00;;;14.00;99.90;;;;;;5045241;28;20056;-60
2022/08/19 00:17:31;;;;;;;9.35;6.65;;;14.00;99.90;;;;;;5040264;28;20037;-60
2022/08/19 00:19:57;;;;;;;14.90;7.97;;;14.00;99.90;;;;;;5034791;28;20094;-59
2022/08/19 00:22:22;;;;;;;12.25;7.88;;;13.90;99.90;;;;;;5034729;28;20041;-59
2022/08/19 00:24:48;;;;;;;9.57;7.07;;;13.90;99.90;;;;;;5045738;28;20061;-59
2022/08/19 00:27:14;;;;;;;9.85;6.57;;;13.90;99.90;;;;;;5049791;28;20377;-59
2022/08/19 00:29:40;;;;;;;9.70;7.20;;;13.90;99.90;;;;;;5049479;28;20410;-61
2022/08/19 00:32:06;;;;;;;9.00;6.85;;;13.80;99.90;;;;;;5043129;28;20079;-59
2022/08/19 00:34:32;;;;;;;13.48;7.22;;;13.90;99.90;;;;;;5039350;28;20037;-59
2022/08/19 00:36:58;;;;;;;9.75;7.15;;;13.90;99.90;;;;;;5047710;28;20033;-60
2022/08/19 00:39:23;;;;;;;12.20;6.80;;;13.80;99.90;;;;;;5041587;28;20098;-59
2022/08/19 00:41:50;;;;;;;8.70;6.60;;;13.80;99.90;;;;;;5041534;28;20033;-60
2022/08/19 00:44:24;;;;;;;10.45;6.78;;;13.80;99.90;;;;;;5039068;28;20099;-59
2022/08/19 00:46:52;;;;;;;7.75;6.03;;;13.80;99.90;;;;;;5049486;28;20044;-60
2022/08/19 00:49:24;;;;;;;11.65;6.50;;;13.80;99.90;;;;;;5037105;28;20044;-59
2022/08/19 00:51:54;;;;;;;8.82;6.40;;;13.80;99.90;;;;;;5034991;28;20090;-60
2022/08/19 00:54:22;;;;;;;8.15;6.15;;;13.70;99.90;;;;;;5032464;28;20129;-59
2022/08/19 00:56:49;;;;;;;11.32;7.43;;;13.70;99.90;;;;;;5037297;28;20072;-60
2022/08/19 00:59:16;;;;;;;9.02;6.93;;;13.60;99.90;;;;;;5040834;28;20037;-60
2022/08/19 01:01:43;;;;;;;12.40;7.57;;;13.60;99.90;;;;;;5050708;28;20124;-60
2022/08/19 01:04:09;;;;;;;13.30;8.13;;;13.50;99.90;;;;;;5043043;28;20063;-59
2022/08/19 01:06:41;;;;;;;10.88;7.28;;;13.50;99.90;;;;;;5039930;28;20389;-60
2022/08/19 01:09:06;;;;;;;10.63;6.85;;;13.50;99.90;;;;;;5038920;28;20047;-59
2022/08/19 01:11:36;;;;;;;12.18;6.57;;;13.50;99.90;;;;;;5038495;28;20461;-59
2022/08/19 01:14:02;;;;;;;9.88;6.53;;;13.50;99.90;;;;;;5042977;28;20059;-60
2022/08/19 01:16:29;;;;;;;9.18;6.28;;;13.50;99.90;;;;;;5045196;28;20061;-59
2022/08/19 01:18:56;;;;;;;8.85;6.22;;;13.40;99.90;;;;;;5046214;28;20033;-60
2022/08/19 01:21:21;;;;;;;9.82;6.35;;;13.40;99.90;;;;;;5035293;28;20045;-60
2022/08/19 01:23:47;;;;;;;10.45;6.75;;;13.40;99.90;;;;;;5044661;28;20365;-60
2022/08/19 01:26:18;;;;;;;11.23;7.32;;;13.30;99.90;;;;;;5046336;28;20045;-59
2022/08/19 01:28:45;;;;;;;10.73;7.82;;;13.40;99.90;;;;;;5046621;28;20145;-59
2022/08/19 01:31:18;;;;;;;11.57;7.63;;;13.30;99.90;;;;;;5047042;28;20415;-59
2022/08/19 01:33:44;;;;;;;10.35;7.57;;;13.30;99.90;;;;;;5040481;28;20045;-60
2022/08/19 01:36:21;;;;;;;10.82;7.40;;;13.40;99.90;;;;;;5035029;28;20053;-60
2022/08/19 01:38:49;;;;;;;12.23;7.70;;;13.30;99.90;;;;;;5043909;28;20047;-59
2022/08/19 01:41:16;;;;;;;15.88;10.15;;;13.30;99.90;;;;;;5040874;28;20048;-59
2022/08/19 01:43:42;;;;;;;12.68;8.52;;;13.30;99.90;;;;;;5037519;28;20033;-59
2022/08/19 01:46:08;;;;;;;13.35;8.70;;;13.30;99.90;;;;;;5043322;28;20041;-60
2022/08/19 01:48:40;;;;;;;12.68;8.35;;;13.30;99.90;;;;;;5036084;28;20366;-59
2022/08/19 01:51:06;;;;;;;12.57;7.57;;;13.30;99.90;;;;;;5043926;28;20064;-59
2022/08/19 01:53:33;;;;;;;12.30;7.80;;;13.20;99.90;;;;;;5037210;28;20033;-60
2022/08/19 01:55:58;;;;;;;13.57;8.23;;;13.20;99.90;;;;;;5037563;28;20045;-60
2022/08/19 01:58:35;;;;;;;12.35;7.63;;;13.20;99.90;;;;;;5036875;28;20049;-59
2022/08/19 02:01:03;;;;;;;11.82;7.97;;;13.20;99.90;;;;;;5036658;28;20068;-59
2022/08/19 02:03:29;;;;;;;13.93;8.55;;;13.20;99.90;;;;;;5041469;28;20037;-61
2022/08/19 02:05:59;;;;;;;12.05;8.73;;;13.10;99.90;;;;;;5044058;28;20086;-59
2022/08/19 02:08:29;;;;;;;13.50;8.80;;;13.10;99.90;;;;;;5042058;28;20041;-59
2022/08/19 02:10:55;;;;;;;12.95;9.15;;;13.10;99.90;;;;;;5052213;28;20037;-58
2022/08/19 02:13:22;;;;;;;14.82;9.10;;;13.10;99.90;;;;;;5044092;28;20055;-60
2022/08/19 02:15:47;;;;;;;16.00;8.68;;;13.10;99.90;;;;;;5050354;28;20500;-59
2022/08/19 02:18:13;;;;;;;9.68;7.07;;;13.10;99.90;;;;;;5038868;28;20053;-59
2022/08/19 02:20:40;;;;;;;12.02;7.43;;;13.10;99.90;;;;;;5037200;28;20041;-59
2022/08/19 02:23:07;;;;;;;12.63;7.97;;;13.00;99.90;;;;;;5038848;28;20091;-59
2022/08/19 02:25:33;;;;;;;12.45;8.32;;;12.90;99.90;;;;;;5043764;28;20048;-58
2022/08/19 02:27:58;;;;;;;14.73;8.85;;;12.90;99.90;;;;;;5049933;28;20045;-60
2022/08/19 02:30:25;;;;;;;13.43;8.27;;;12.80;99.90;;;;;;5051145;28;20162;-59
2022/08/19 02:32:51;;;;;;;11.05;7.28;;;12.80;99.90;;;;;;5037373;28;20045;-59
2022/08/19 02:35:17;;;;;;;12.57;8.20;;;12.70;99.90;;;;;;5044389;28;20041;-59
2022/08/19 02:40:29;;;;;;;10.77;6.93;;;12.70;99.90;;;;;;5047112;28;20049;-58
2022/08/19 02:42:55;;;;;;;8.68;6.50;;;12.70;99.90;;;;;;5045817;28;20087;-59
2022/08/19 02:45:20;;;;;;;6.13;4.88;;;12.70;99.90;;;;;;5051640;28;20073;-59
2022/08/19 02:47:46;;;;;;;5.25;4.15;;;12.70;99.90;;;;;;5041599;28;20042;-59
2022/08/19 02:50:13;;;;;;;6.65;4.18;;;12.70;99.90;;;;;;5040639;28;20033;-59
2022/08/19 02:52:38;;;;;;;6.43;3.72;;;12.70;99.90;;;;;;5043226;28;20080;-60
2022/08/19 02:55:05;;;;;;;7.90;4.80;;;12.70;99.90;;;;;;5043108;28;20139;-60
2022/08/19 02:57:31;;;;;;;6.97;4.88;;;12.70;99.90;;;;;;5046637;28;20044;-59
2022/08/19 02:59:57;;;;;;;6.18;4.38;;;12.70;99.90;;;;;;5048028;28;20037;-59
2022/08/19 03:02:23;;;;;;;8.77;5.57;;;12.60;99.90;;;;;;5049234;28;21142;-60
2022/08/19 03:04:49;;;;;;;7.35;5.20;;;12.60;99.90;;;;;;5049011;28;20382;-59
2022/08/19 03:07:16;;;;;;;6.40;3.85;;;12.70;99.90;;;;;;5045292;28;20179;-60
2022/08/19 03:09:42;;;;;;;3.70;2.50;;;12.70;99.90;;;;;;5037516;28;20034;-58
2022/08/19 03:12:09;;;;;;;4.18;2.78;;;12.70;99.90;;;;;;5040470;28;20039;-59
2022/08/19 03:14:35;;;;;;;5.93;3.40;;;12.60;99.90;;;;;;5036342;28;20048;-59
2022/08/19 03:17:01;;;;;;;5.85;3.70;;;12.60;99.90;;;;;;5045035;28;20453;-59
2022/08/19 03:19:27;;;;;;;7.30;4.55;;;12.60;99.90;;;;;;5046661;28;20036;-59
2022/08/19 03:21:53;;;;;;;9.13;5.55;;;12.60;99.90;;;;;;5047987;28;20041;-60
2022/08/19 03:24:20;;;;;;;10.10;5.55;;;12.60;99.90;;;;;;5043283;28;20048;-59
2022/08/19 03:26:51;;;;;;;9.75;5.55;;;12.50;99.90;;;;;;5037226;28;20406;-60
2022/08/19 03:29:18;;;;;;;10.75;6.07;;;12.50;99.90;;;;;;5043313;28;20377;-60
2022/08/19 03:31:44;;;;;;;12.45;6.55;;;12.50;99.90;;;;;;5042105;28;20037;-59
2022/08/19 03:34:12;;;;;;;11.52;7.13;;;12.50;99.90;;;;;;5033964;28;20048;-60
2022/08/19 03:36:38;;;;;;;12.63;7.55;;;12.60;99.90;;;;;;5038783;28;20490;-59
2022/08/19 03:39:04;;;;;;;13.77;7.45;;;12.50;99.90;;;;;;5046288;28;20041;-59
2022/08/19 03:41:33;;;;;;;11.95;7.13;;;12.50;99.90;;;;;;5041694;28;20521;-59
2022/08/19 03:43:59;;;;;;;13.65;7.72;;;12.60;99.90;;;;;;5031557;28;20633;-60
2022/08/19 03:46:30;;;;;;;10.02;6.72;;;12.60;99.90;;;;;;5043854;28;20516;-59
2022/08/19 03:48:57;;;;;;;8.90;4.95;;;12.60;99.90;;;;;;5041582;28;20042;-60
2022/08/19 03:51:24;;;;;;;6.65;3.97;;;12.60;99.90;;;;;;5043324;28;20029;-59
2022/08/19 03:53:52;;;;;;;8.95;5.18;;;12.60;99.90;;;;;;5042433;28;20376;-60
2022/08/19 03:56:18;;;;;;;9.85;6.07;;;12.60;99.90;;;;;;5051923;28;20041;-60
2022/08/19 03:58:44;;;;;;;9.02;6.28;;;12.60;99.90;;;;;;5050075;28;20111;-59
2022/08/19 04:01:13;;;;;;;11.50;6.68;;;12.50;99.90;;;;;;5051861;28;20492;-58
2022/08/19 04:03:39;;;;;;;9.25;6.05;;;12.50;99.90;;;;;;5042199;28;20044;-59
2022/08/19 04:06:20;;;;;;;11.93;7.50;;;12.50;99.90;;;;;;5049358;28;20047;-58
2022/08/19 04:08:48;;;;;;;15.30;7.68;;;12.50;99.90;;;;;;5038426;28;20032;-59
2022/08/19 04:11:17;;;;;;;14.38;7.47;;;12.60;99.90;;;;;;5037247;28;20053;-59
2022/08/19 04:13:44;;;;;;;13.18;6.88;;;12.60;99.90;;;;;;5042465;28;20045;-59
2022/08/19 04:16:10;;;;;;;10.00;6.35;;;12.60;99.90;;;;;;5043428;28;20041;-59
2022/08/19 04:18:37;;;;;;;11.48;7.40;;;12.60;99.90;;;;;;5032448;28;20029;-59
2022/08/19 04:21:04;;;;;;;12.70;7.18;;;12.50;99.90;;;;;;5034033;28;20485;-59
2022/08/19 04:23:29;;;;;;;13.48;7.55;;;12.50;99.90;;;;;;5037362;28;20112;-58
2022/08/19 04:25:56;;;;;;;10.90;7.10;;;12.50;99.90;;;;;;5040058;28;20174;-59
2022/08/19 04:28:22;;;;;;;13.63;7.47;;;12.40;99.90;;;;;;5040161;28;20048;-59
2022/08/19 04:30:51;;;;;;;13.02;7.13;;;12.40;99.90;;;;;;5041792;28;20093;-60
2022/08/19 04:33:22;;;;;;;8.35;5.28;;;12.50;99.90;;;;;;5039012;28;20076;-59
2022/08/19 04:35:49;;;;;;;6.40;3.63;;;12.50;99.90;;;;;;5034213;28;20045;-58
2022/08/19 04:38:17;;;;;;;6.43;2.75;;;12.50;99.90;;;;;;5033408;28;20045;-59
2022/08/19 04:43:35;;;;;;;4.90;2.45;;;12.40;99.90;;;;;;5042848;28;20048;-59
2022/08/19 04:46:11;;;;;;;5.10;2.92;;;12.30;99.90;;;;;;5048964;28;20040;-59
2022/08/19 04:48:38;;;;;;;5.15;3.17;;;12.30;99.90;;;;;;5038330;28;20052;-59
2022/08/19 04:51:08;;;;;;;6.60;3.65;;;12.40;99.90;;;;;;5040724;28;20039;-59
2022/08/19 04:53:36;;;;;;;6.18;4.32;;;12.40;99.90;;;;;;5045150;28;20112;-60
2022/08/19 04:56:12;;;;;;;9.52;5.47;;;12.40;99.90;;;;;;5034679;28;20401;-59
2022/08/19 04:58:39;;;;;;;10.38;5.53;;;12.40;99.90;;;;;;5030161;28;20772;-59
2022/08/19 05:01:05;;;;;;;13.48;6.95;;;12.40;99.90;;;;;;5033415;28;20083;-59
2022/08/19 05:03:33;;;;;;;16.42;8.25;;;12.50;99.90;;;;;;5043474;28;20068;-59
2022/08/19 05:06:10;;;;;;;14.25;7.40;;;12.60;99.90;;;;;;5044705;28;20043;-59
2022/08/19 05:08:38;;;;;;;15.27;8.75;;;12.70;99.90;;;;;;5036188;28;20029;-59
2022/08/19 05:11:15;;;;;;;14.23;6.97;;;12.60;99.90;;;;;;5049908;28;20041;-60
2022/08/19 05:13:42;;;;;;;12.32;7.45;;;12.60;99.90;;;;;;5044377;28;20049;-58
2022/08/19 05:16:10;;;;;;;13.18;7.18;;;12.60;99.90;;;;;;5040241;28;20114;-59
2022/08/19 05:24:09;;;;;;;14.30;7.13;;;12.70;99.90;;;;;;5042213;28;20533;-59
2022/08/19 05:26:42;;;;;;;14.30;7.28;;;12.80;99.90;;;;;;5037954;28;20033;-60
2022/08/19 05:29:08;;;;;;;14.52;8.10;;;12.80;99.90;;;;;;5040624;28;20036;-60
2022/08/19 05:31:35;;;;;;;15.52;7.68;;;12.90;99.90;;;;;;5042679;28;20025;-59
2022/08/19 05:34:03;;;;;;;15.88;8.25;;;13.00;99.90;;;;;;5045509;28;20404;-59
2022/08/19 05:36:35;;;;;;;20.48;9.63;;;13.10;99.90;;;;;;5031248;28;20094;-60
2022/08/19 05:39:02;;;;;;;20.33;10.70;;;13.20;99.90;;;;;;5045012;28;20057;-59
2022/08/19 05:41:30;;;;;;;17.00;9.50;;;13.30;99.90;;;;;;5036043;28;20048;-59
2022/08/19 05:44:02;;;;;;;24.88;11.25;;;13.50;99.90;;;;;;5031858;28;20042;-59
2022/08/19 05:46:28;;;;;;;20.48;11.65;;;13.60;99.90;;;;;;5035160;28;20128;-58
2022/08/19 05:48:56;;;;;;;25.95;12.32;;;13.80;99.90;;;;;;5042315;28;20128;-61
2022/08/19 05:51:23;;;;;;;26.13;12.98;;;14.00;99.90;;;;;;5042967;28;20115;-60
2022/08/19 05:53:50;;;;;;;24.73;12.50;;;14.10;99.90;;;;;;5043504;28;20103;-60
2022/08/19 05:56:17;;;;;;;27.02;13.43;;;14.30;99.90;;;;;;5036646;28;20041;-60
2022/08/19 05:58:44;;;;;;;30.73;15.07;;;14.50;99.90;;;;;;5038379;28;20067;-59
2022/08/19 06:01:18;;;;;;;24.70;14.35;;;14.70;99.90;;;;;;5043388;28;20500;-59
2022/08/19 06:03:45;;;;;;;34.15;15.88;;;14.90;99.90;;;;;;5038708;28;20044;-59
2022/08/19 06:06:15;;;;;;;30.30;15.48;;;15.10;99.90;;;;;;5044016;28;20040;-59
2022/08/19 06:08:42;;;;;;;28.52;15.02;;;15.30;99.90;;;;;;5039542;28;20037;-59
2022/08/19 06:11:39;;;;;;;30.45;15.10;;;15.40;99.90;;;;;;5037431;28;20424;-59
2022/08/19 06:14:08;;;;;;;26.92;14.52;;;15.70;99.90;;;;;;5037679;28;20195;-60
2022/08/19 06:16:38;;;;;;;23.13;13.40;;;15.90;99.90;;;;;;5042644;28;20090;-60
2022/08/19 06:19:07;;;;;;;22.60;13.30;;;16.10;99.90;;;;;;5040758;28;20048;-61
2022/08/19 06:21:36;;;;;;;20.48;12.45;;;16.40;99.90;;;;;;5039825;28;20041;-60
2022/08/19 06:24:03;;;;;;;20.05;11.75;;;16.60;99.90;;;;;;5045028;28;20044;-60
2022/08/19 06:26:29;;;;;;;22.30;11.60;;;16.90;99.90;;;;;;5042990;28;20485;-60
2022/08/19 06:28:55;;;;;;;16.92;10.75;;;17.20;99.90;;;;;;5041012;28;20037;-60
2022/08/19 06:31:24;;;;;;;14.38;9.88;;;17.40;99.90;;;;;;5036184;28;20033;-61
2022/08/19 06:33:50;;;;;;;13.37;9.83;;;17.70;99.90;;;;;;5045394;28;20516;-61
2022/08/19 06:36:33;;;;;;;15.00;9.50;;;17.90;99.90;;;;;;5044701;28;20155;-60
2022/08/19 06:39:01;;;;;;;12.93;9.13;;;18.20;99.90;;;;;;5045850;28;20052;-60
2022/08/19 06:41:27;;;;;;;11.50;8.13;;;18.50;99.90;;;;;;5037717;28;20056;-60
2022/08/19 06:43:54;;;;;;;11.30;7.93;;;18.80;99.90;;;;;;5040242;28;20064;-61
2022/08/19 06:46:20;;;;;;;9.95;7.95;;;19.00;99.90;;;;;;5046323;28;20048;-60
2022/08/19 06:48:47;;;;;;;11.60;7.85;;;19.20;99.90;;;;;;5045470;28;20052;-61
2022/08/19 06:51:15;;;;;;;10.65;7.03;;;19.30;99.90;;;;;;5035516;28;20087;-61
2022/08/19 06:53:45;;;;;;;10.70;7.50;;;19.60;99.90;;;;;;5036034;28;20030;-61
2022/08/19 06:56:11;;;;;;;10.40;7.55;;;19.70;99.90;;;;;;5045812;28;20091;-60
2022/08/19 06:58:38;;;;;;;10.38;7.00;;;19.90;99.90;;;;;;5038493;28;20072;-62
2022/08/19 07:01:04;;;;;;;8.57;7.03;;;20.10;99.90;;;;;;5043390;28;20361;-62
2022/08/19 07:03:35;;;;;;;12.30;9.20;;;20.20;99.90;;;;;;5044966;28;20166;-61
2022/08/19 07:06:09;;;;;;;10.43;7.43;;;20.40;99.90;;;;;;5039884;28;20461;-60
2022/08/19 07:08:40;;;;;;;9.27;7.20;;;20.70;99.90;;;;;;5053192;28;20059;-61
2022/08/19 07:11:12;;;;;;;8.82;7.32;;;20.80;99.90;;;;;;5052838;28;20044;-60
2022/08/19 07:13:39;;;;;;;11.80;7.63;;;21.10;99.90;;;;;;5052888;28;20076;-60
2022/08/19 07:16:07;;;;;;;12.43;8.27;;;21.30;99.90;;;;;;5039942;28;20045;-61
2022/08/19 07:18:33;;;;;;;10.57;7.43;;;21.50;99.90;;;;;;5044186;28;20487;-62
2022/08/19 07:21:08;;;;;;;8.50;7.20;;;21.70;99.90;;;;;;5043374;28;20442;-60
2022/08/19 07:23:34;;;;;;;11.93;7.45;;;22.00;99.90;;;;;;5053748;28;20045;-61
2022/08/19 07:26:10;;;;;;;9.57;6.68;;;22.10;99.90;;;;;;5035454;28;20468;-62
2022/08/19 07:28:38;;;;;;;11.02;6.97;;;22.30;99.90;;;;;;5044414;28;20111;-62
2022/08/19 07:31:09;;;;;;;9.75;6.40;;;22.50;99.90;;;;;;5037650;28;20121;-61
2022/08/19 07:33:36;;;;;;;10.77;7.35;;;22.70;99.90;;;;;;5034122;28;20068;-61
2022/08/19 07:36:05;;;;;;;8.80;6.97;;;23.00;99.90;;;;;;5049661;28;20033;-61
2022/08/19 07:38:30;;;;;;;9.90;7.00;;;23.20;99.90;;;;;;5050192;28;20059;-61
2022/08/19 07:40:56;;;;;;;8.73;6.90;;;23.30;99.90;;;;;;5051196;28;20036;-61
2022/08/19 07:43:25;;;;;;;7.25;5.80;;;23.50;99.90;;;;;;5047073;28;20037;-62
2022/08/19 07:45:52;;;;;;;9.88;7.28;;;23.70;99.90;;;;;;5037771;28;20033;-61
2022/08/19 07:48:18;;;;;;;7.47;6.07;;;23.90;98.80;;;;;;5034537;28;20037;-62
2022/08/19 07:50:45;;;;;;;7.07;6.18;;;24.00;98.10;;;;;;5041381;28;20048;-61
2022/08/19 07:53:12;;;;;;;7.57;6.47;;;24.00;98.30;;;;;;5041304;28;20045;-62
2022/08/19 07:55:37;;;;;;;6.90;5.80;;;24.30;98.00;;;;;;5033592;28;20501;-62
2022/08/19 07:58:04;;;;;;;6.97;5.50;;;24.60;97.50;;;;;;5033395;28;20051;-61
2022/08/19 08:00:30;;;;;;;9.05;6.28;;;24.80;96.80;;;;;;5032142;28;20056;-61
2022/08/19 08:02:56;;;;;;;6.05;5.45;;;24.90;96.00;;;;;;5042458;28;20048;-62
2022/08/19 08:10:51;;;;;;;10.43;6.78;;;25.00;94.40;;;;;;5038332;28;20385;-60
2022/08/19 08:13:16;;;;;;;9.30;6.30;;;25.20;93.50;;;;;;5050512;28;20031;-61
2022/08/19 08:15:44;;;;;;;7.32;6.07;;;25.40;92.90;;;;;;5039748;28;20034;-62
2022/08/19 08:18:11;;;;;;;8.00;6.75;;;25.60;92.40;;;;;;5037609;28;20378;-61
2022/08/19 08:20:37;;;;;;;7.45;5.40;;;25.70;91.50;;;;;;5049920;28;20070;-61
2022/08/19 08:25:48;;;;;;;8.38;6.22;;;26.50;90.70;;;;;;5038606;28;20049;-62
2022/08/19 08:28:14;;;;;;;8.85;6.88;;;26.80;90.10;;;;;;5045184;28;20127;-61
2022/08/19 08:30:42;;;;;;;8.63;6.63;;;26.70;88.60;;;;;;5041621;28;20041;-60
2022/08/19 08:33:08;;;;;;;6.25;5.25;;;26.70;87.60;;;;;;5045471;28;20043;-61
2022/08/19 08:35:34;;;;;;;7.07;5.65;;;26.60;87.50;;;;;;5037234;28;20443;-61
2022/08/19 08:37:59;;;;;;;8.40;6.40;;;26.60;87.00;;;;;;5034549;28;20099;-62
2022/08/19 08:40:50;;;;;;;6.82;5.20;;;26.90;85.90;;;;;;5037034;28;20033;-61
2022/08/19 08:43:42;;;;;;;6.60;6.00;;;27.10;81.60;;;;;;5037995;28;20409;-61
2022/08/19 08:46:16;;;;;;;8.13;5.90;;;27.40;81.40;;;;;;5045472;28;20045;-61
2022/08/19 08:49:01;;;;;;;7.32;4.93;;;28.10;78.90;;;;;;5046203;28;20099;-61
2022/08/19 08:51:42;;;;;;;5.32;4.20;;;28.60;75.40;;;;;;5050652;28;20369;-61
2022/08/19 08:54:12;;;;;;;4.85;3.20;;;29.00;71.50;;;;;;5042464;28;20076;-62
2022/08/19 08:56:38;;;;;;;;;;;29.40;70.70;;;;;;5037680;28;20080;-62
2022/08/19 08:59:16;;;;;;;3.83;2.80;;;29.40;68.90;;;;;;5044977;28;19917;-61
2022/08/19 09:01:43;;;;;;;4.60;3.08;;;30.00;66.70;;;;;;5025342;28;20072;-62
2022/08/19 09:04:11;;;;;;;3.33;3.03;;;30.20;65.60;;;;;;5048650;28;20040;-62
2022/08/19 09:06:46;;;;;;;3.75;3.42;;;29.70;62.10;;;;;;5048760;28;20041;-62
2022/08/19 09:09:18;;;;;;;7.38;3.75;;;30.10;60.60;;;;;;5051780;28;20033;-62
2022/08/19 09:11:48;;;;;;;4.53;3.80;;;30.60;60.70;;;;;;5043272;28;20033;-62
2022/08/19 09:14:28;;;;;;;3.97;3.10;;;30.90;59.30;;;;;;5045484;28;20392;-61
2022/08/19 09:16:53;;;;;;;3.67;2.85;;;30.90;57.90;;;;;;5039429;28;20375;-62
2022/08/19 09:19:19;;;;;;;4.18;2.83;;;31.30;57.20;;;;;;5046559;28;20041;-62
2022/08/19 09:21:45;;;;;;;3.78;3.03;;;31.80;56.10;;;;;;5044048;28;20025;-63
2022/08/19 09:24:11;;;;;;;4.35;3.53;;;31.90;56.10;;;;;;5042304;28;20041;-62
2022/08/19 09:26:36;;;;;;;3.90;3.40;;;31.80;55.70;;;;;;5034126;28;20041;-62
2022/08/19 09:29:04;;;;;;;4.45;2.67;;;30.80;56.30;;;;;;5049322;28;20051;-62
2022/08/19 09:31:32;;;;;;;3.97;3.25;;;30.40;57.50;;;;;;5049176;28;20119;-62
2022/08/19 09:33:58;;;;;;;4.75;3.70;;;30.10;57.10;;;;;;5043981;28;20045;-63
2022/08/19 09:36:28;;;;;;;4.93;3.78;;;29.60;57.70;;;;;;5034952;28;20481;-62
2022/08/19 09:38:55;;;;;;;6.03;5.38;;;29.40;58.40;;;;;;5031168;28;20049;-62
2022/08/19 09:41:22;;;;;;;6.40;4.90;;;29.40;58.50;;;;;;5034947;28;20056;-62
2022/08/19 09:43:55;;;;;;;5.57;4.85;;;29.40;58.80;;;;;;5043935;28;20045;-62
2022/08/19 09:46:22;;;;;;;7.63;5.13;;;29.30;57.90;;;;;;5049807;28;20059;-61
2022/08/19 09:48:50;;;;;;;7.85;6.60;;;29.30;58.10;;;;;;5050704;28;20037;-62
2022/08/19 09:51:24;;;;;;;6.32;5.25;;;29.30;57.90;;;;;;5030590;28;20557;-62
2022/08/19 09:53:53;;;;;;;6.22;5.63;;;29.20;57.90;;;;;;5042875;28;20033;-63
2022/08/19 09:56:21;;;;;;;8.27;7.07;;;29.10;58.60;;;;;;5049131;28;20043;-62
2022/08/19 09:58:47;;;;;;;6.00;4.70;;;29.00;58.80;;;;;;5037604;28;20037;-61
2022/08/19 10:01:19;;;;;;;7.53;5.53;;;28.70;59.30;;;;;;5043063;28;20072;-63
2022/08/19 10:03:51;;;;;;;5.80;4.50;;;28.50;58.30;;;;;;5038863;28;20092;-63
2022/08/19 10:06:17;;;;;;;7.25;4.90;;;29.00;58.20;;;;;;5031091;28;20040;-61
2022/08/19 10:08:43;;;;;;;7.68;4.85;;;29.50;56.80;;;;;;5050110;28;20044;-62
2022/08/19 10:11:09;;;;;;;7.15;4.70;;;30.70;54.70;;;;;;5049825;28;20386;-62
2022/08/19 10:13:36;;;;;;;5.22;4.72;;;31.30;53.00;;;;;;5031351;28;20041;-62
2022/08/19 10:16:08;;;;;;;6.25;5.68;;;32.10;52.00;;;;;;5048230;28;20044;-62
2022/08/19 10:18:35;;;;;;;5.40;4.43;;;31.60;51.60;;;;;;5035580;28;20491;-62
2022/08/19 10:21:08;;;;;;;5.40;4.90;;;31.00;52.80;;;;;;5041299;28;20077;-61
2022/08/19 10:23:36;;;;;;;5.40;3.92;;;30.60;53.00;;;;;;5041176;28;20053;-61
2022/08/19 10:26:03;;;;;;;6.28;4.10;;;30.20;54.20;;;;;;5052995;28;20052;-62
2022/08/19 10:28:29;;;;;;;7.13;4.78;;;29.80;54.80;;;;;;5052994;28;20427;-63
2022/08/19 10:30:54;;;;;;;5.22;4.50;;;29.30;55.00;;;;;;5054785;28;20071;-62
2022/08/19 10:33:20;;;;;;;5.13;4.50;;;29.10;55.30;;;;;;5043278;28;20457;-62
2022/08/19 10:35:46;;;;;;;5.18;4.68;;;28.70;55.80;;;;;;5052501;28;20377;-62
2022/08/19 10:38:12;;;;;;;6.63;4.38;;;28.70;56.40;;;;;;5054177;28;20124;-61
2022/08/19 10:40:37;;;;;;;5.78;4.30;;;28.50;57.20;;;;;;5055352;28;20119;-62
2022/08/19 10:43:03;;;;;;;10.57;7.47;;;28.50;58.00;;;;;;5050568;28;20043;-63
2022/08/19 10:45:28;;;;;;;7.25;5.47;;;28.60;57.60;;;;;;5051209;28;20362;-62
2022/08/19 10:47:54;;;;;;;5.82;5.22;;;28.40;58.20;;;;;;5054292;28;20047;-63
2022/08/19 10:53:10;;;;;;;4.90;4.47;;;28.10;58.30;;;;;;5045109;28;20041;-62
2022/08/19 10:58:25;;;;;;;8.38;6.10;;;28.00;58.80;;;;;;5045728;28;20631;-62
2022/08/19 11:00:57;;;;;;;7.38;5.97;;;28.00;58.90;;;;;;5050360;28;20043;-62
2022/08/19 11:03:23;;;;;;;9.98;8.20;;;28.00;58.70;;;;;;5040416;28;20111;-62
2022/08/19 11:06:19;;;;;;;7.90;4.80;;;28.00;58.80;;;;;;5046073;28;20392;-62
2022/08/19 11:08:45;;;;;;;7.50;5.57;;;28.20;60.60;;;;;;5035825;28;20049;-62
2022/08/19 11:11:11;;;;;;;7.03;5.85;;;28.00;60.50;;;;;;5045638;28;20035;-62
2022/08/19 11:13:40;;;;;;;8.50;5.53;;;28.00;60.30;;;;;;5045029;28;20422;-63
2022/08/19 11:16:16;;;;;;;10.10;6.22;;;27.90;60.00;;;;;;5048930;28;20044;-62
2022/08/19 11:18:48;;;;;;;8.70;6.05;;;28.10;60.00;;;;;;5039519;28;20415;-62
2022/08/19 11:21:18;;;;;;;6.32;5.18;;;27.90;59.90;;;;;;5052979;28;20087;-62
2022/08/19 11:23:46;;;;;;;6.88;5.05;;;28.00;60.00;;;;;;5029748;28;20052;-61
2022/08/19 11:26:13;;;;;;;6.88;6.18;;;27.80;60.30;;;;;;5048377;28;20045;-62
2022/08/19 11:28:39;;;;;;;7.82;6.05;;;27.90;60.40;;;;;;5051869;28;20049;-61
2022/08/19 11:31:16;;;;;;;7.57;5.90;;;27.80;60.70;;;;;;5046818;28;20133;-61
2022/08/19 11:33:42;;;;;;;6.05;5.00;;;27.90;60.50;;;;;;5050953;28;20389;-61
2022/08/19 11:36:08;;;;;;;9.00;6.00;;;27.80;60.70;;;;;;5035563;28;20045;-62
2022/08/19 11:38:35;;;;;;;7.15;6.00;;;27.80;60.30;;;;;;5048829;28;21007;-62
2022/08/19 11:41:04;;;;;;;7.07;6.35;;;27.60;60.70;;;;;;5053248;28;20056;-62
2022/08/19 11:43:31;;;;;;;8.68;6.40;;;27.60;61.50;;;;;;5044894;28;20049;-61
2022/08/19 11:45:57;;;;;;;7.57;6.65;;;27.70;61.00;;;;;;5039391;28;20045;-62
2022/08/19 11:48:24;;;;;;;8.27;6.25;;;27.70;61.60;;;;;;5053305;28;20397;-63
2022/08/19 11:50:51;;;;;;;8.65;6.60;;;27.60;60.90;;;;;;5050167;28;20108;-62
2022/08/19 11:53:19;;;;;;;8.95;6.88;;;27.50;60.60;;;;;;5051218;28;20041;-62
2022/08/19 11:55:45;;;;;;;7.25;5.85;;;27.40;60.50;;;;;;5043703;28;20048;-62
2022/08/19 11:58:11;;;;;;;8.05;5.63;;;27.40;60.70;;;;;;5052706;28;20045;-62
2022/08/19 12:00:38;;;;;;;8.40;7.50;;;27.50;60.90;;;;;;5034255;28;20041;-62
2022/08/19 12:03:04;;;;;;;11.40;7.35;;;27.60;60.90;;;;;;5045460;28;20058;-62
2022/08/19 12:05:30;;;;;;;9.18;6.50;;;27.90;61.00;;;;;;5039929;28;20052;-62
2022/08/19 12:07:56;;;;;;;8.38;6.68;;;27.90;60.60;;;;;;5051037;28;20033;-63
2022/08/19 12:10:21;;;;;;;8.05;5.75;;;28.00;60.00;;;;;;5050119;28;20086;-62
2022/08/19 12:12:47;;;;;;;7.05;6.00;;;28.00;60.10;;;;;;5051600;28;20040;-62
2022/08/19 12:15:14;;;;;;;7.65;6.47;;;28.30;59.50;;;;;;5048409;28;20040;-62
2022/08/19 12:17:41;;;;;;;8.50;6.40;;;28.60;58.20;;;;;;5044902;28;20037;-62
2022/08/19 12:20:10;;;;;;;7.65;6.28;;;28.70;58.00;;;;;;5031035;28;20041;-62
2022/08/19 12:22:37;;;;;;;7.30;6.30;;;28.90;57.90;;;;;;5034989;28;20043;-62
2022/08/19 12:25:04;;;;;;;7.18;6.25;;;28.90;57.10;;;;;;5046272;28;20045;-62
2022/08/19 12:27:30;;;;;;;11.70;6.18;;;29.10;56.40;;;;;;5043421;28;20106;-61
2022/08/19 12:29:56;;;;;;;7.47;6.72;;;29.00;56.30;;;;;;5036376;28;20122;-62
2022/08/19 12:32:24;;;;;;;6.85;6.13;;;29.20;56.50;;;;;;5040149;28;20041;-61
2022/08/19 12:34:50;;;;;;;6.38;5.75;;;29.30;56.20;;;;;;5043891;28;20098;-62
2022/08/19 12:37:16;;;;;;;7.57;6.18;;;29.40;56.20;;;;;;5042572;28;20477;-61
2022/08/19 12:39:43;;;;;;;8.13;6.70;;;29.20;56.30;;;;;;5031338;28;20079;-61
2022/08/19 12:42:12;;;;;;;8.43;6.85;;;28.60;56.40;;;;;;5047621;28;20088;-63
2022/08/19 12:44:40;;;;;;;8.75;7.57;;;28.30;56.60;;;;;;5042841;28;20500;-62
2022/08/19 12:47:06;;;;;;;7.70;6.88;;;28.20;57.20;;;;;;5052203;28;20044;-62
2022/08/19 12:49:36;;;;;;;9.57;7.47;;;27.90;58.00;;;;;;5037016;28;20036;-62
2022/08/19 12:52:04;;;;;;;8.00;7.05;;;27.60;58.30;;;;;;5030534;28;20470;-61
2022/08/19 12:54:30;;;;;;;8.80;7.18;;;27.50;58.70;;;;;;5039550;28;20037;-61
2022/08/19 12:56:57;;;;;;;7.22;6.32;;;27.70;58.70;;;;;;5032097;28;20448;-62
2022/08/19 12:59:23;;;;;;;7.53;6.78;;;28.00;58.70;;;;;;5035201;28;20034;-62
2022/08/19 13:01:49;;;;;;;8.35;6.40;;;28.20;58.30;;;;;;5031976;28;20057;-62
2022/08/19 13:04:16;;;;;;;6.55;4.88;;;28.40;57.40;;;;;;5029633;28;20124;-63
2022/08/19 13:06:42;;;;;;;5.30;4.65;;;28.60;56.00;;;;;;5035105;28;20123;-62
2022/08/19 13:09:08;;;;;;;6.70;4.63;;;28.50;55.00;;;;;;5043883;28;20111;-62
2022/08/19 13:11:34;;;;;;;4.45;3.50;;;28.30;54.60;;;;;;5049051;28;20037;-62